Time;durP1;ratioP1;P1;durP2;ratioP2;P2;SDS_P1;SDS_P2;PMS_P1;PMS_P2;Temp;Humidity;BMP_temperature;BMP_pressure;BME280_temperature;BME280_humidity;BME280_pressure;Samples;Min_cycle;Max_cycle;Signal;HPM_P1;HPM_P2
2022/01/22 00:00:25;;;;;;;23.38;2.28;;;5.90;84.30;;;;;;5037111;28;20420;-74
2022/01/22 00:02:51;;;;;;;16.35;2.80;;;5.90;84.20;;;;;;5057316;28;20060;-74
2022/01/22 00:05:20;;;;;;;13.85;1.75;;;5.90;84.60;;;;;;5047213;28;20032;-74
2022/01/22 00:07:46;;;;;;;13.57;2.33;;;5.90;84.60;;;;;;5059560;28;20281;-75
2022/01/22 00:10:14;;;;;;;14.90;2.25;;;5.90;84.40;;;;;;5053329;28;20044;-74
2022/01/22 00:13:06;;;;;;;13.90;1.90;;;5.90;84.40;;;;;;5030472;28;20050;-74
2022/01/22 00:15:31;;;;;;;21.98;1.92;;;5.80;84.30;;;;;;5049788;28;20052;-74
2022/01/22 00:17:58;;;;;;;13.63;1.80;;;5.90;84.50;;;;;;5060707;28;20466;-74
2022/01/22 00:20:26;;;;;;;18.27;2.10;;;5.90;84.50;;;;;;5065599;28;20119;-74
2022/01/22 00:22:52;;;;;;;17.98;2.42;;;5.80;84.50;;;;;;5058424;28;20127;-74
2022/01/22 00:25:19;;;;;;;19.42;2.38;;;5.90;84.60;;;;;;5037426;28;20500;-74
2022/01/22 00:27:47;;;;;;;19.67;2.22;;;5.80;84.60;;;;;;5035779;28;20058;-74
2022/01/22 00:30:16;;;;;;;17.58;2.42;;;5.80;84.60;;;;;;5054189;28;20040;-74
2022/01/22 00:32:42;;;;;;;17.70;2.05;;;5.80;84.60;;;;;;5056782;28;20047;-74
2022/01/22 00:35:08;;;;;;;14.53;2.63;;;5.80;84.60;;;;;;5034317;28;20033;-74
2022/01/22 00:37:36;;;;;;;17.95;2.42;;;5.80;84.70;;;;;;5064609;28;20373;-74
2022/01/22 00:40:04;;;;;;;21.83;2.22;;;5.90;84.80;;;;;;5061117;28;20283;-74
2022/01/22 00:42:32;;;;;;;19.05;2.10;;;5.90;84.70;;;;;;5045816;28;20044;-75
2022/01/22 00:44:58;;;;;;;14.75;2.35;;;5.90;84.80;;;;;;5054175;28;20399;-74
2022/01/22 00:47:23;;;;;;;15.73;2.73;;;5.90;84.80;;;;;;5055621;28;20043;-74
2022/01/22 00:49:49;;;;;;;15.13;2.30;;;5.90;85.00;;;;;;5044059;28;20040;-74
2022/01/22 00:52:15;;;;;;;14.83;2.40;;;5.90;85.10;;;;;;5048860;28;20043;-74
2022/01/22 00:54:41;;;;;;;12.63;1.67;;;5.90;85.20;;;;;;5028678;28;20135;-74
2022/01/22 00:57:06;;;;;;;22.83;2.17;;;5.90;85.20;;;;;;5046124;28;20044;-74
2022/01/22 00:59:32;;;;;;;12.27;1.90;;;5.90;85.20;;;;;;5049724;28;20046;-74
2022/01/22 01:01:58;;;;;;;15.13;2.87;;;5.90;85.20;;;;;;5062196;28;20443;-74
2022/01/22 01:04:24;;;;;;;18.45;2.58;;;5.90;85.30;;;;;;5057074;28;20052;-74
2022/01/22 01:06:50;;;;;;;22.27;2.87;;;5.90;85.30;;;;;;5058447;28;20065;-74
2022/01/22 01:09:17;;;;;;;15.27;1.40;;;5.90;85.30;;;;;;5032385;28;20040;-74
2022/01/22 01:11:56;;;;;;;17.30;2.05;;;5.90;85.30;;;;;;5057669;28;20381;-74
2022/01/22 01:14:38;;;;;;;14.07;1.30;;;5.90;85.40;;;;;;5054386;28;20043;-74
2022/01/22 01:33:19;;;;;;;14.65;1.88;;;5.90;85.60;;;;;;5034603;28;20047;-74
2022/01/22 01:35:45;;;;;;;20.17;1.65;;;5.90;85.60;;;;;;5029337;28;20040;-74
2022/01/22 01:38:11;;;;;;;13.23;2.03;;;5.90;85.70;;;;;;5049519;28;20044;-74
2022/01/22 01:40:41;;;;;;;12.13;1.37;;;5.90;85.80;;;;;;5066876;28;20155;-74
2022/01/22 01:43:14;;;;;;;14.80;2.22;;;5.80;85.80;;;;;;5043777;28;20044;-74
2022/01/22 01:45:40;;;;;;;14.88;1.63;;;5.80;85.80;;;;;;5051594;28;20130;-74
2022/01/22 01:48:12;;;;;;;12.33;1.50;;;5.80;85.80;;;;;;5055391;28;20186;-74
2022/01/22 01:50:40;;;;;;;8.65;0.90;;;5.80;85.80;;;;;;5046640;28;20091;-74
2022/01/22 01:53:30;;;;;;;11.43;1.05;;;5.80;86.00;;;;;;5042918;28;20083;-74
2022/01/22 01:58:24;;;;;;;10.85;0.75;;;5.80;85.90;;;;;;5044753;28;20051;-74
2022/01/22 02:00:50;;;;;;;7.18;0.52;;;5.80;86.00;;;;;;5030710;28;20063;-74
2022/01/22 02:03:16;;;;;;;6.68;0.52;;;5.80;86.10;;;;;;5038947;28;20127;-74
2022/01/22 02:05:42;;;;;;;9.18;0.80;;;5.80;86.00;;;;;;5069504;28;20044;-74
2022/01/22 02:08:09;;;;;;;4.10;0.60;;;5.80;85.90;;;;;;5038983;28;20109;-74
2022/01/22 02:10:42;;;;;;;8.82;0.60;;;5.80;86.10;;;;;;5043660;28;20063;-74
2022/01/22 02:24:06;;;;;;;9.80;0.70;;;5.70;86.60;;;;;;5068549;28;20117;-74
2022/01/22 02:26:32;;;;;;;9.25;0.60;;;5.70;86.90;;;;;;5058315;28;20036;-74
2022/01/22 02:28:58;;;;;;;13.57;1.30;;;5.70;87.00;;;;;;5041063;28;20048;-74
2022/01/22 02:31:55;;;;;;;12.23;0.80;;;5.70;87.00;;;;;;5056094;28;20036;-74
2022/01/22 02:34:28;;;;;;;11.48;0.90;;;5.70;87.20;;;;;;5058925;28;20048;-76
2022/01/22 02:37:01;;;;;;;8.82;0.82;;;5.70;87.10;;;;;;5042332;28;20039;-75
2022/01/22 02:40:08;;;;;;;11.18;0.80;;;5.70;87.20;;;;;;5054050;28;20054;-75
2022/01/22 02:42:23;;;;;;;14.95;1.17;;;5.70;87.30;;;;;;5049131;28;20040;-75
2022/01/22 02:44:49;;;;;;;10.77;1.30;;;5.70;87.40;;;;;;5062861;28;20108;-75
2022/01/22 02:47:16;;;;;;;14.70;1.70;;;5.70;87.30;;;;;;5048617;28;20036;-75
2022/01/22 02:49:42;;;;;;;10.52;0.90;;;5.70;87.30;;;;;;5053943;28;20123;-75
2022/01/22 02:52:09;;;;;;;8.32;0.98;;;5.70;87.60;;;;;;5058080;28;20123;-75
2022/01/22 02:54:37;;;;;;;7.80;0.75;;;5.60;87.60;;;;;;5059649;28;20080;-75
2022/01/22 02:57:03;;;;;;;12.07;1.15;;;5.60;87.60;;;;;;5057044;28;20043;-75
2022/01/22 02:59:29;;;;;;;11.98;1.30;;;5.60;87.80;;;;;;5029712;28;20044;-75
2022/01/22 03:01:55;;;;;;;8.23;0.90;;;5.60;87.70;;;;;;5060551;28;20101;-75
2022/01/22 03:04:21;;;;;;;11.07;1.00;;;5.60;87.70;;;;;;5048698;28;20039;-75
2022/01/22 03:06:48;;;;;;;7.03;0.83;;;5.70;87.80;;;;;;5045265;28;20503;-75
2022/01/22 03:09:16;;;;;;;5.35;1.10;;;5.60;87.80;;;;;;5049258;28;20045;-75
2022/01/22 03:17:28;;;;;;;6.50;1.10;;;5.60;87.80;;;;;;5054053;28;20092;-75
2022/01/22 03:22:41;;;;;;;7.13;0.90;;;5.50;88.00;;;;;;5048902;28;20100;-75
2022/01/22 03:27:52;;;;;;;7.93;1.45;;;5.60;88.00;;;;;;5047781;28;20051;-75
2022/01/22 03:30:18;;;;;;;10.20;0.93;;;5.60;88.10;;;;;;5048325;28;20413;-75
2022/01/22 03:32:49;;;;;;;12.07;1.25;;;5.60;88.10;;;;;;5065857;28;20411;-75
2022/01/22 03:37:46;;;;;;;8.75;1.20;;;5.60;88.20;;;;;;5065333;28;20049;-75
2022/01/22 03:40:13;;;;;;;9.25;1.13;;;5.60;88.10;;;;;;5036363;28;20056;-75
2022/01/22 03:42:40;;;;;;;12.80;1.33;;;5.60;88.30;;;;;;5033970;28;20044;-74
2022/01/22 03:45:09;;;;;;;9.02;1.30;;;5.60;88.20;;;;;;5050047;28;20036;-75
2022/01/22 03:47:35;;;;;;;9.70;1.45;;;5.60;88.20;;;;;;5039359;28;20126;-75
2022/01/22 03:50:01;;;;;;;10.37;1.07;;;5.50;88.20;;;;;;5050565;28;20123;-75
2022/01/22 03:52:26;;;;;;;9.38;1.10;;;5.50;88.30;;;;;;5062780;28;20045;-74
2022/01/22 03:54:52;;;;;;;9.87;1.17;;;5.50;88.40;;;;;;5031774;28;20052;-74
2022/01/22 03:57:22;;;;;;;6.97;1.33;;;5.50;88.20;;;;;;5031851;28;20045;-75
2022/01/22 03:59:48;;;;;;;11.35;1.25;;;5.50;88.40;;;;;;5056613;28;20048;-75
2022/01/22 04:04:41;;;;;;;9.77;1.47;;;5.40;88.30;;;;;;5051757;28;20060;-76
2022/01/22 04:09:41;;;;;;;7.22;1.05;;;5.40;88.50;;;;;;5050108;28;20105;-74
2022/01/22 04:12:09;;;;;;;7.43;1.55;;;5.40;88.50;;;;;;5058729;28;20052;-74
2022/01/22 04:14:37;;;;;;;10.50;1.50;;;5.40;88.50;;;;;;5044247;28;20531;-74
2022/01/22 04:25:00;;;;;;;7.82;1.00;;;5.40;88.80;;;;;;5050333;28;20079;-75
2022/01/22 04:27:27;;;;;;;5.78;0.80;;;5.40;88.70;;;;;;5020309;28;20084;-75
2022/01/22 04:29:57;;;;;;;5.82;0.80;;;5.40;88.70;;;;;;5032386;28;20126;-75
2022/01/22 04:32:24;;;;;;;5.22;1.05;;;5.40;88.70;;;;;;5055227;28;20117;-75
2022/01/22 04:34:49;;;;;;;4.05;0.80;;;5.50;88.70;;;;;;5032198;28;20344;-74
2022/01/22 04:37:18;;;;;;;6.47;0.90;;;5.50;88.80;;;;;;5043426;28;20579;-74
2022/01/22 04:39:45;;;;;;;3.33;0.88;;;5.50;88.70;;;;;;5051028;28;20497;-74
2022/01/22 04:42:11;;;;;;;6.80;0.80;;;5.50;88.90;;;;;;5057803;28;20183;-74
2022/01/22 04:44:44;;;;;;;8.60;1.08;;;5.50;88.70;;;;;;5048895;28;20040;-74
2022/01/22 04:55:00;;;;;;;13.73;1.90;;;5.60;88.90;;;;;;5039124;28;20113;-76
2022/01/22 04:57:27;;;;;;;14.65;2.00;;;5.60;88.70;;;;;;5055189;28;20129;-75
2022/01/22 04:59:53;;;;;;;12.05;1.70;;;5.60;88.90;;;;;;5031484;28;20033;-75
2022/01/22 05:02:19;;;;;;;11.47;2.00;;;5.60;88.90;;;;;;5063089;28;20035;-75
2022/01/22 05:04:44;;;;;;;9.87;1.73;;;5.60;88.80;;;;;;5040564;28;20159;-75
2022/01/22 05:07:10;;;;;;;13.77;2.00;;;5.60;88.80;;;;;;5021204;28;20076;-75
2022/01/22 05:09:36;;;;;;;7.77;1.20;;;5.60;88.70;;;;;;5038004;28;20104;-75
2022/01/22 05:12:04;;;;;;;10.77;1.63;;;5.50;88.70;;;;;;5031940;28;20040;-75
2022/01/22 05:14:29;;;;;;;9.00;1.67;;;5.60;88.70;;;;;;5041280;28;20497;-75
2022/01/22 05:16:56;;;;;;;11.47;1.10;;;5.50;88.70;;;;;;5025845;28;20094;-75
2022/01/22 05:20:08;;;;;;;6.85;0.85;;;5.60;88.80;;;;;;5060207;28;20040;-75
2022/01/22 05:22:25;;;;;;;6.95;1.08;;;5.60;88.70;;;;;;5047213;28;20178;-75
2022/01/22 05:24:56;;;;;;;16.00;1.48;;;5.60;88.70;;;;;;5041177;28;20040;-76
2022/01/22 05:37:52;;;;;;;10.43;1.90;;;5.50;88.60;;;;;;5045741;28;20083;-74
2022/01/22 05:40:18;;;;;;;15.67;2.47;;;5.50;88.50;;;;;;5047355;28;20064;-75
2022/01/22 05:42:44;;;;;;;11.53;1.80;;;5.40;88.50;;;;;;5047083;28;20098;-74
2022/01/22 05:45:10;;;;;;;13.70;1.90;;;5.40;88.60;;;;;;5037272;28;20149;-75
2022/01/22 05:47:36;;;;;;;15.43;1.50;;;5.40;88.50;;;;;;5061149;28;20048;-74
2022/01/22 05:50:06;;;;;;;10.75;1.35;;;5.40;88.50;;;;;;5045525;28;20110;-75
2022/01/22 05:52:44;;;;;;;11.77;1.80;;;5.40;88.60;;;;;;5043337;28;20041;-74
2022/01/22 06:00:22;;;;;;;7.40;1.20;;;5.30;88.60;;;;;;5036367;28;20068;-74
2022/01/22 06:02:48;;;;;;;9.27;1.30;;;5.30;88.70;;;;;;5029144;28;20033;-74
2022/01/22 06:05:14;;;;;;;8.80;1.10;;;5.30;88.60;;;;;;5044847;28;20106;-74
2022/01/22 06:07:39;;;;;;;9.77;1.10;;;5.30;88.50;;;;;;5032573;28;20056;-74
2022/01/22 06:10:16;;;;;;;8.00;1.00;;;5.30;88.50;;;;;;5035832;28;20044;-75
2022/01/22 06:15:10;;;;;;;9.77;0.88;;;5.20;88.40;;;;;;5047986;28;20049;-75
2022/01/22 06:17:36;;;;;;;6.35;0.65;;;5.20;88.40;;;;;;5031247;28;20041;-74
2022/01/22 06:20:02;;;;;;;6.27;0.70;;;5.20;88.20;;;;;;5042473;28;20524;-74
2022/01/22 06:22:28;;;;;;;6.70;1.33;;;5.10;88.20;;;;;;5019571;28;20047;-74
2022/01/22 06:24:53;;;;;;;6.73;0.60;;;5.10;88.20;;;;;;5026663;28;20044;-74
2022/01/22 06:27:19;;;;;;;7.73;0.80;;;5.10;88.10;;;;;;5055951;28;20040;-74
2022/01/22 06:29:45;;;;;;;6.97;0.60;;;5.10;88.10;;;;;;5027022;28;20124;-74
2022/01/22 06:32:11;;;;;;;4.10;0.30;;;5.10;88.10;;;;;;5039708;28;20128;-74
2022/01/22 06:34:36;;;;;;;6.10;0.40;;;5.20;88.10;;;;;;5017423;28;20408;-74
2022/01/22 06:37:02;;;;;;;4.90;0.40;;;5.20;88.20;;;;;;5050482;28;20045;-74
2022/01/22 06:39:28;;;;;;;6.93;0.77;;;5.20;88.10;;;;;;5045082;28;20045;-74
2022/01/22 06:41:54;;;;;;;6.03;0.40;;;5.20;88.30;;;;;;5038753;28;20039;-74
2022/01/22 06:44:25;;;;;;;3.40;0.50;;;5.20;88.30;;;;;;5045119;28;20040;-74
2022/01/22 06:46:54;;;;;;;5.93;0.43;;;5.10;88.20;;;;;;5051190;28;20603;-74
2022/01/22 06:49:20;;;;;;;7.45;0.60;;;5.20;88.40;;;;;;5045248;28;20349;-75
2022/01/22 06:51:46;;;;;;;4.22;0.60;;;5.20;88.40;;;;;;5062332;28;20044;-75
2022/01/22 06:54:13;;;;;;;7.03;0.40;;;5.20;88.40;;;;;;5059456;28;20044;-75
2022/01/22 06:56:40;;;;;;;6.85;0.75;;;5.20;88.50;;;;;;5046251;28;20039;-75
2022/01/22 06:59:08;;;;;;;6.32;1.00;;;5.20;88.50;;;;;;5036792;28;20076;-75
2022/01/22 07:01:34;;;;;;;9.82;0.75;;;5.20;88.60;;;;;;5053202;28;20041;-75
2022/01/22 07:04:01;;;;;;;7.13;0.85;;;5.20;88.60;;;;;;5024232;28;20076;-75
2022/01/22 07:06:27;;;;;;;7.63;1.05;;;5.20;88.50;;;;;;5037060;28;20523;-74
2022/01/22 07:08:53;;;;;;;6.73;1.10;;;5.20;88.50;;;;;;5048036;28;20124;-75
2022/01/22 07:11:19;;;;;;;8.40;1.10;;;5.20;88.60;;;;;;5054948;28;20412;-74
2022/01/22 07:13:45;;;;;;;6.63;0.95;;;5.20;88.50;;;;;;5034015;28;20516;-74
2022/01/22 07:16:11;;;;;;;8.07;1.10;;;5.20;88.60;;;;;;5028864;28;20276;-74
2022/01/22 07:18:37;;;;;;;8.37;1.30;;;5.20;88.70;;;;;;5057867;28;20040;-74
2022/01/22 07:21:16;;;;;;;12.43;1.50;;;5.20;88.60;;;;;;5057010;28;20097;-75
2022/01/22 07:26:14;;;;;;;11.05;2.13;;;5.30;88.60;;;;;;5058004;28;20047;-75
2022/01/22 07:28:40;;;;;;;11.95;1.73;;;5.30;88.50;;;;;;5028665;28;20145;-74
2022/01/22 07:31:07;;;;;;;14.10;3.43;;;5.30;88.50;;;;;;5047960;28;20085;-74
2022/01/22 07:33:34;;;;;;;12.60;2.28;;;5.30;88.40;;;;;;5042890;28;20411;-74
2022/01/22 07:36:01;;;;;;;15.52;2.25;;;5.30;88.50;;;;;;5069052;28;20048;-74
2022/01/22 07:38:26;;;;;;;15.75;2.03;;;5.40;88.50;;;;;;5036945;28;20085;-74
2022/01/22 07:40:52;;;;;;;11.97;1.67;;;5.40;88.40;;;;;;5039856;28;20471;-74
2022/01/22 07:43:18;;;;;;;8.67;1.50;;;5.40;88.20;;;;;;5033415;28;20040;-74
2022/01/22 07:45:44;;;;;;;14.20;1.90;;;5.40;88.20;;;;;;5047862;28;20067;-74
2022/01/22 07:48:10;;;;;;;16.67;2.58;;;5.40;88.20;;;;;;5033404;28;20036;-74
2022/01/22 07:50:36;;;;;;;16.50;2.00;;;5.50;88.00;;;;;;5030190;28;20043;-74
2022/01/22 07:53:02;;;;;;;14.37;1.67;;;5.50;87.90;;;;;;5047692;28;20059;-74
2022/01/22 07:55:28;;;;;;;15.88;2.20;;;5.50;88.00;;;;;;5055694;28;20044;-74
2022/01/22 07:57:55;;;;;;;18.35;2.30;;;5.50;87.90;;;;;;5069719;28;20044;-74
2022/01/22 08:00:20;;;;;;;15.95;2.13;;;5.50;87.90;;;;;;5049058;28;20101;-75
2022/01/22 08:02:46;;;;;;;15.80;1.67;;;5.50;88.00;;;;;;5065786;28;20500;-74
2022/01/22 08:05:13;;;;;;;15.07;2.17;;;5.50;87.90;;;;;;5041557;28;20036;-75
2022/01/22 08:07:44;;;;;;;15.10;1.70;;;5.50;87.90;;;;;;5048681;28;20500;-74
2022/01/22 08:10:10;;;;;;;12.27;1.50;;;5.50;88.00;;;;;;5040343;28;20048;-74
2022/01/22 08:12:41;;;;;;;14.00;1.38;;;5.50;87.80;;;;;;5052217;28;20444;-74
2022/01/22 08:15:08;;;;;;;13.27;1.73;;;5.50;87.80;;;;;;5040280;28;20075;-74
2022/01/22 08:17:34;;;;;;;10.35;1.40;;;5.50;87.80;;;;;;5039905;28;20046;-74
2022/01/22 08:20:00;;;;;;;14.07;2.53;;;5.50;87.70;;;;;;5028784;28;20094;-74
2022/01/22 08:22:26;;;;;;;11.77;2.30;;;5.50;87.60;;;;;;5054132;28;20052;-74
2022/01/22 08:24:54;;;;;;;10.03;1.90;;;5.50;87.70;;;;;;5046883;28;20036;-74
2022/01/22 08:27:34;;;;;;;12.98;3.05;;;5.50;87.60;;;;;;5033968;28;20094;-74
2022/01/22 08:30:03;;;;;;;11.02;2.55;;;5.50;87.60;;;;;;5068458;28;20067;-74
2022/01/22 08:37:42;;;;;;;12.90;3.30;;;5.60;87.30;;;;;;5064482;28;20129;-74
2022/01/22 08:40:09;;;;;;;10.27;2.60;;;5.60;87.10;;;;;;5061859;28;20091;-74
2022/01/22 08:42:36;;;;;;;19.00;3.42;;;5.60;87.10;;;;;;5039756;28;20059;-74
2022/01/22 08:45:02;;;;;;;11.73;2.03;;;5.70;87.20;;;;;;5031397;28;20111;-74
2022/01/22 08:47:27;;;;;;;9.70;3.35;;;5.70;87.10;;;;;;5040931;28;20107;-74
2022/01/22 08:49:53;;;;;;;16.03;3.33;;;5.70;87.20;;;;;;5038775;28;20083;-74
2022/01/22 08:52:23;;;;;;;14.30;2.27;;;5.70;87.20;;;;;;5030376;28;20060;-74
2022/01/22 08:54:49;;;;;;;11.65;2.35;;;5.70;87.10;;;;;;5041578;28;20047;-74
2022/01/22 08:57:15;;;;;;;11.37;2.77;;;5.80;87.10;;;;;;5039746;28;20609;-74
2022/01/22 08:59:42;;;;;;;11.93;2.20;;;5.80;87.20;;;;;;5057015;28;20044;-74
2022/01/22 09:02:07;;;;;;;14.23;2.60;;;5.80;87.20;;;;;;5054934;28;20037;-74
2022/01/22 09:04:33;;;;;;;8.43;2.40;;;5.80;87.10;;;;;;5036471;28;20630;-74
2022/01/22 09:07:00;;;;;;;15.07;3.03;;;5.90;87.00;;;;;;5038599;28;20040;-74
2022/01/22 09:09:26;;;;;;;14.48;2.72;;;5.90;86.90;;;;;;5042503;28;20048;-74
2022/01/22 09:11:53;;;;;;;13.38;3.08;;;5.90;86.80;;;;;;5041300;28;20039;-74
2022/01/22 09:14:22;;;;;;;15.43;3.15;;;6.00;86.70;;;;;;5057233;28;20087;-74
2022/01/22 09:16:48;;;;;;;13.02;2.55;;;6.00;86.80;;;;;;5056548;28;20064;-74
2022/01/22 09:19:14;;;;;;;9.27;2.53;;;6.00;86.70;;;;;;5025366;28;20509;-74
2022/01/22 09:21:43;;;;;;;16.13;3.07;;;6.00;86.40;;;;;;5054103;28;20037;-74
2022/01/22 09:24:10;;;;;;;12.80;2.20;;;6.10;86.20;;;;;;5055812;28;20388;-74
2022/01/22 09:26:36;;;;;;;8.00;2.33;;;6.10;86.30;;;;;;5055357;28;20044;-74
2022/01/22 09:29:03;;;;;;;13.37;2.47;;;6.10;86.20;;;;;;5056732;28;20511;-74
2022/01/22 09:31:30;;;;;;;9.40;2.25;;;6.20;86.30;;;;;;5037298;28;20044;-74
2022/01/22 09:33:57;;;;;;;13.23;2.83;;;6.20;86.10;;;;;;5037164;28;20040;-74
2022/01/22 09:36:24;;;;;;;11.23;2.33;;;6.20;85.50;;;;;;5042652;28;20040;-74
2022/01/22 09:38:50;;;;;;;12.25;2.65;;;6.20;85.50;;;;;;5057354;28;20047;-73
2022/01/22 09:41:17;;;;;;;8.88;2.28;;;6.30;85.20;;;;;;5035636;28;20039;-74
2022/01/22 09:43:43;;;;;;;7.80;2.10;;;6.30;85.50;;;;;;5042477;28;20044;-74
2022/01/22 09:46:09;;;;;;;13.80;2.27;;;6.30;84.80;;;;;;5054653;28;20035;-74
2022/01/22 09:48:49;;;;;;;12.95;2.30;;;6.30;85.00;;;;;;5049662;28;20048;-74
2022/01/22 09:51:15;;;;;;;10.15;2.20;;;6.40;84.90;;;;;;5054593;28;20082;-74
2022/01/22 09:53:42;;;;;;;8.13;1.70;;;6.40;84.30;;;;;;5053932;28;20078;-74
2022/01/22 09:56:09;;;;;;;20.23;2.67;;;6.40;84.80;;;;;;5037589;28;20044;-73
2022/01/22 09:58:35;;;;;;;14.07;2.70;;;6.40;84.50;;;;;;5049760;28;20480;-74
2022/01/22 10:01:19;;;;;;;9.15;2.33;;;6.40;84.40;;;;;;5039759;28;20044;-74
2022/01/22 10:03:45;;;;;;;10.20;2.65;;;6.50;84.80;;;;;;5053350;28;20072;-74
2022/01/22 10:06:21;;;;;;;17.33;3.40;;;6.50;84.70;;;;;;5038463;28;20075;-73
2022/01/22 10:08:47;;;;;;;16.58;3.70;;;6.50;84.80;;;;;;5056744;28;20110;-74
2022/01/22 10:11:26;;;;;;;14.60;3.00;;;6.50;84.50;;;;;;5032649;28;20044;-73
2022/01/22 10:13:53;;;;;;;8.85;2.60;;;6.50;84.70;;;;;;5058331;28;20040;-74
2022/01/22 10:16:30;;;;;;;9.82;2.15;;;6.60;84.80;;;;;;5027678;28;20059;-74
2022/01/22 10:19:24;;;;;;;13.48;2.20;;;6.60;84.70;;;;;;5053016;28;20416;-74
2022/01/22 10:21:59;;;;;;;13.15;2.17;;;6.60;84.80;;;;;;5060515;28;20158;-74
2022/01/22 10:24:39;;;;;;;9.47;1.97;;;6.60;84.90;;;;;;5062459;28;20047;-74
2022/01/22 10:27:33;;;;;;;12.63;2.67;;;6.60;84.80;;;;;;5057347;28;20051;-74
2022/01/22 10:30:11;;;;;;;12.63;2.55;;;6.60;84.90;;;;;;5041203;28;20044;-74
2022/01/22 10:35:07;;;;;;;9.57;2.55;;;6.70;84.90;;;;;;5061184;28;20044;-74
2022/01/22 10:37:33;;;;;;;11.20;2.08;;;6.80;84.90;;;;;;5060749;28;20085;-73
2022/01/22 10:40:19;;;;;;;10.67;2.27;;;6.80;84.50;;;;;;5036006;28;20052;-74
2022/01/22 10:42:45;;;;;;;10.88;2.30;;;6.80;84.40;;;;;;5040956;28;21188;-74
2022/01/22 10:45:18;;;;;;;14.53;2.60;;;6.80;84.40;;;;;;5036238;28;20127;-71
2022/01/22 10:47:45;;;;;;;11.60;2.33;;;6.80;84.20;;;;;;5037219;28;20032;-71
2022/01/22 10:50:22;;;;;;;10.65;1.90;;;6.80;84.20;;;;;;5050569;28;20043;-71
2022/01/22 10:52:50;;;;;;;14.48;2.40;;;6.80;84.40;;;;;;5055704;28;20050;-71
2022/01/22 10:55:16;;;;;;;11.68;2.40;;;6.90;84.50;;;;;;5056270;28;20098;-71
2022/01/22 10:58:07;;;;;;;11.20;2.17;;;6.80;84.00;;;;;;5020275;28;20040;-71
2022/01/22 11:00:33;;;;;;;11.18;2.25;;;6.80;84.00;;;;;;5058700;28;20344;-71
2022/01/22 11:02:59;;;;;;;9.32;1.65;;;6.80;84.10;;;;;;5045587;28;20052;-71
2022/01/22 11:05:37;;;;;;;10.73;1.90;;;6.80;84.00;;;;;;5041124;28;20040;-71
2022/01/22 11:08:14;;;;;;;8.38;1.73;;;6.80;83.90;;;;;;5050605;28;20052;-71
2022/01/22 11:10:44;;;;;;;11.10;2.25;;;6.70;83.80;;;;;;5043281;28;20539;-71
2022/01/22 11:13:10;;;;;;;11.23;2.55;;;6.70;84.10;;;;;;5061065;28;20032;-71
2022/01/22 11:15:36;;;;;;;11.30;1.90;;;6.80;83.70;;;;;;5042356;28;20044;-71
2022/01/22 11:18:03;;;;;;;13.50;1.75;;;6.80;83.90;;;;;;5050406;28;20040;-72
2022/01/22 11:20:32;;;;;;;13.02;2.33;;;6.80;83.90;;;;;;5037169;28;20046;-71
2022/01/22 11:22:59;;;;;;;16.25;2.20;;;6.80;84.10;;;;;;5057880;28;20043;-71
2022/01/22 11:25:25;;;;;;;11.02;1.58;;;6.80;84.10;;;;;;5063566;28;20076;-71
2022/01/22 11:27:52;;;;;;;11.98;1.60;;;6.80;83.80;;;;;;5059627;28;20040;-71
2022/01/22 11:30:25;;;;;;;8.90;1.35;;;6.80;83.70;;;;;;5042480;28;20313;-71
2022/01/22 11:33:04;;;;;;;6.53;1.17;;;6.80;82.40;;;;;;5041028;28;20895;-71
2022/01/22 11:35:51;;;;;;;8.60;1.58;;;6.80;83.10;;;;;;5042069;28;20079;-71
2022/01/22 11:38:31;;;;;;;6.25;1.20;;;6.80;83.10;;;;;;5055432;28;20498;-72
2022/01/22 11:41:10;;;;;;;13.98;2.47;;;6.90;82.80;;;;;;5036670;28;20033;-71
2022/01/22 11:44:15;;;;;;;7.32;1.58;;;6.90;82.60;;;;;;5055604;28;20116;-71
2022/01/22 11:46:46;;;;;;;10.75;1.30;;;6.90;82.70;;;;;;5049203;28;20039;-71
2022/01/22 11:49:21;;;;;;;11.73;1.45;;;6.90;81.90;;;;;;5056802;28;20042;-71
2022/01/22 11:51:49;;;;;;;11.63;1.67;;;6.90;81.60;;;;;;5069122;28;20670;-71
2022/01/22 11:54:17;;;;;;;9.15;1.63;;;6.80;81.10;;;;;;5044117;28;20039;-71
2022/01/22 11:56:54;;;;;;;6.72;1.00;;;6.90;81.20;;;;;;5054192;28;20467;-71
2022/01/22 11:59:23;;;;;;;10.68;1.67;;;6.90;82.00;;;;;;5063759;28;20042;-71
2022/01/22 12:01:51;;;;;;;10.43;1.40;;;6.90;81.80;;;;;;5040007;28;20036;-71
2022/01/22 12:04:39;;;;;;;10.73;1.63;;;6.90;81.40;;;;;;5040297;28;20086;-72
2022/01/22 12:07:07;;;;;;;11.00;1.50;;;6.90;81.60;;;;;;5064761;28;20408;-72
2022/01/22 12:15:20;;;;;;;9.98;1.50;;;6.90;81.20;;;;;;5055763;28;20055;-71
2022/01/22 12:23:15;;;;;;;8.85;1.48;;;6.90;81.30;;;;;;5059316;28;20048;-71
2022/01/22 12:25:41;;;;;;;9.05;1.20;;;6.90;81.50;;;;;;5056350;28;20496;-71
2022/01/22 12:28:12;;;;;;;10.57;1.53;;;6.90;81.90;;;;;;5058466;28;20071;-71
2022/01/22 12:30:47;;;;;;;9.88;1.90;;;6.90;81.20;;;;;;5036084;28;20068;-72
2022/01/22 12:33:28;;;;;;;8.68;1.10;;;6.90;81.80;;;;;;5040201;28;20044;-71
2022/01/22 12:35:58;;;;;;;7.13;0.75;;;6.90;81.60;;;;;;5036480;28;20520;-71
2022/01/22 12:38:44;;;;;;;8.13;1.60;;;6.90;81.20;;;;;;5049906;28;20048;-71
2022/01/22 12:44:11;;;;;;;7.57;1.30;;;7.00;81.40;;;;;;5060136;28;20250;-73
2022/01/22 12:46:37;;;;;;;5.63;0.88;;;7.00;81.40;;;;;;5039445;28;20078;-72
2022/01/22 12:49:05;;;;;;;4.17;0.53;;;7.00;81.30;;;;;;5035138;28;20485;-72
2022/01/22 12:51:31;;;;;;;7.55;0.80;;;7.00;80.40;;;;;;5038808;28;20286;-72
2022/01/22 12:53:58;;;;;;;7.57;0.80;;;7.00;79.90;;;;;;5037090;28;20102;-72
2022/01/22 12:59:04;;;;;;;7.75;0.77;;;6.90;79.50;;;;;;5054056;28;20068;-72
2022/01/22 13:01:32;;;;;;;3.95;0.60;;;6.80;79.20;;;;;;5061489;28;20453;-72
2022/01/22 13:04:00;;;;;;;10.98;0.98;;;6.80;79.10;;;;;;5040695;28;20037;-72
2022/01/22 13:06:43;;;;;;;7.90;0.63;;;6.70;78.80;;;;;;5037257;28;20049;-72
2022/01/22 13:09:11;;;;;;;4.95;0.88;;;6.70;79.90;;;;;;5049385;28;20136;-73
2022/01/22 13:11:45;;;;;;;6.40;0.85;;;6.70;80.00;;;;;;5046562;28;20052;-72
2022/01/22 13:14:16;;;;;;;6.32;0.82;;;6.80;80.20;;;;;;5045320;28;20076;-72
2022/01/22 13:16:53;;;;;;;6.60;0.63;;;6.80;80.20;;;;;;5037238;28;20120;-72
2022/01/22 13:19:21;;;;;;;12.63;1.30;;;6.80;80.40;;;;;;5059020;28;20047;-71
2022/01/22 13:21:55;;;;;;;6.55;0.68;;;6.80;79.80;;;;;;5035968;28;20040;-72
2022/01/22 13:24:26;;;;;;;5.88;0.75;;;6.80;80.10;;;;;;5041022;28;20036;-72
2022/01/22 13:27:15;;;;;;;6.85;0.70;;;6.80;80.30;;;;;;5042649;28;20040;-72
2022/01/22 13:29:50;;;;;;;9.40;0.65;;;6.80;80.00;;;;;;5049979;28;20503;-72
2022/01/22 13:48:45;;;;;;;5.22;0.40;;;6.80;80.20;;;;;;5057894;28;20043;-72
2022/01/22 13:51:12;;;;;;;6.75;0.38;;;6.80;80.20;;;;;;5014768;28;20047;-72
2022/01/22 13:53:39;;;;;;;4.88;0.80;;;6.70;79.90;;;;;;5039126;28;20047;-72
2022/01/22 13:56:11;;;;;;;7.35;0.70;;;6.80;80.40;;;;;;5055578;28;20114;-72
2022/01/22 13:58:37;;;;;;;4.93;0.52;;;6.70;80.20;;;;;;5033189;28;20051;-72
2022/01/22 14:01:27;;;;;;;4.73;0.90;;;6.70;80.60;;;;;;5041254;28;20037;-72
2022/01/22 14:04:10;;;;;;;5.57;0.45;;;6.70;80.80;;;;;;5041692;28;20037;-71
2022/01/22 14:06:36;;;;;;;4.07;0.45;;;6.70;80.80;;;;;;5043682;28;20420;-71
2022/01/22 14:09:17;;;;;;;4.60;0.73;;;6.70;80.60;;;;;;5049224;28;20040;-72
2022/01/22 14:12:12;;;;;;;6.80;0.98;;;6.70;80.60;;;;;;5061998;28;20507;-72
2022/01/22 14:15:16;;;;;;;7.72;0.65;;;6.70;80.70;;;;;;5047569;28;20393;-72
2022/01/22 14:21:05;;;;;;;4.75;0.70;;;6.60;80.70;;;;;;5034578;28;20415;-72
2022/01/22 14:23:35;;;;;;;4.32;0.55;;;6.60;80.90;;;;;;5046893;28;20539;-72
2022/01/22 14:26:28;;;;;;;6.53;1.45;;;6.50;80.70;;;;;;5060730;28;20082;-72
2022/01/22 14:28:55;;;;;;;3.92;0.55;;;6.50;80.90;;;;;;5059915;28;20105;-72
2022/01/22 14:31:34;;;;;;;7.57;1.15;;;6.50;81.10;;;;;;5070944;28;20048;-72
2022/01/22 14:34:12;;;;;;;11.20;1.05;;;6.40;81.00;;;;;;5054502;28;20040;-72
2022/01/22 14:36:43;;;;;;;9.40;1.23;;;6.40;81.40;;;;;;5065910;28;20051;-72
2022/01/22 14:44:40;;;;;;;11.90;1.10;;;6.40;81.70;;;;;;5068246;28;20044;-72
2022/01/22 14:47:29;;;;;;;14.70;1.00;;;6.40;82.10;;;;;;5055435;28;20036;-72
2022/01/22 14:50:04;;;;;;;5.65;0.73;;;6.40;82.40;;;;;;5042377;28;20048;-72
2022/01/22 14:52:30;;;;;;;8.85;1.15;;;6.40;82.60;;;;;;5052967;28;20052;-72
2022/01/22 14:54:59;;;;;;;7.43;1.17;;;6.30;82.40;;;;;;5043224;28;20052;-72
2022/01/22 14:57:28;;;;;;;11.13;1.17;;;6.30;82.50;;;;;;5037927;28;20048;-72
2022/01/22 14:59:54;;;;;;;8.43;1.73;;;6.20;82.80;;;;;;5056276;28;20080;-72
2022/01/22 15:02:20;;;;;;;6.00;0.98;;;6.20;82.90;;;;;;5049380;28;20089;-72
2022/01/22 15:04:46;;;;;;;8.20;1.13;;;6.20;83.00;;;;;;5030215;28;20049;-72
2022/01/22 15:07:16;;;;;;;6.18;1.25;;;6.20;83.30;;;;;;5051617;28;20060;-72
2022/01/22 15:09:45;;;;;;;6.30;0.98;;;6.10;83.40;;;;;;5036217;28;20066;-73
2022/01/22 15:12:12;;;;;;;9.73;1.00;;;6.10;83.50;;;;;;5054069;28;20040;-73
2022/01/22 15:14:41;;;;;;;9.73;0.70;;;6.10;83.80;;;;;;5042330;28;20036;-72
2022/01/22 15:19:38;;;;;;;6.68;0.80;;;6.00;83.80;;;;;;5049306;28;20044;-73